createdAt,value
2023-03-23T15:59:27.309Z,0.80
2023-03-23T16:01:54.231Z,0.90
2023-03-23T16:04:21.409Z,0.82
2023-03-23T16:06:48.955Z,0.90
2023-03-23T16:09:19.447Z,1.35
2023-03-23T16:11:46.559Z,1.08
2023-03-23T16:14:13.236Z,0.75
2023-03-23T16:16:39.961Z,0.80
2023-03-23T16:19:07.247Z,0.70
2023-03-23T16:21:34.144Z,0.85
2023-03-23T16:24:01.450Z,0.77
2023-03-23T16:26:28.276Z,0.90
2023-03-23T16:29:02.749Z,0.80
2023-03-23T16:31:36.843Z,0.70
2023-03-23T16:34:03.497Z,1.05
2023-03-23T16:36:30.096Z,1.33
2023-03-23T16:38:56.690Z,1.35
2023-03-23T16:41:23.388Z,1.20
2023-03-23T16:43:50.109Z,0.80
2023-03-23T16:46:16.759Z,1.08
2023-03-23T16:48:43.728Z,1.30
2023-03-23T16:51:10.477Z,0.93
2023-03-23T16:53:37.738Z,1.00
2023-03-23T16:56:05.195Z,0.70
2023-03-23T16:58:31.969Z,0.80
2023-03-23T17:00:58.663Z,0.93
2023-03-23T17:03:25.652Z,0.90
2023-03-23T17:05:53.059Z,0.95
2023-03-23T17:08:20.989Z,0.73
2023-03-23T17:10:48.259Z,1.00
2023-03-23T17:13:14.930Z,1.33
2023-03-23T17:15:45.290Z,1.10
2023-03-23T17:18:14.232Z,1.02
2023-03-23T17:20:42.707Z,1.40
2023-03-23T17:23:09.611Z,1.60
2023-03-23T17:25:36.192Z,1.20
2023-03-23T17:28:05.687Z,1.23
2023-03-23T17:30:33.159Z,1.00
2023-03-23T17:33:00.151Z,1.00
2023-03-23T17:35:26.922Z,1.25
2023-03-23T17:37:53.699Z,1.13
2023-03-23T17:40:20.531Z,0.90
2023-03-23T17:42:47.186Z,1.30
2023-03-23T17:45:13.864Z,1.30
2023-03-23T17:47:40.526Z,1.20
2023-03-23T17:50:11.673Z,1.00
2023-03-23T17:52:40.523Z,1.00
2023-03-23T17:55:08.147Z,1.02
2023-03-23T17:57:35.413Z,1.50
2023-03-23T18:00:03.546Z,1.50
2023-03-23T18:02:30.450Z,1.30
2023-03-23T18:04:59.711Z,1.00
2023-03-23T18:07:26.424Z,1.15
2023-03-23T18:09:53.130Z,1.42
2023-03-23T18:12:19.811Z,1.10
2023-03-23T18:14:46.497Z,1.10
2023-03-23T18:17:13.071Z,1.02
2023-03-23T18:19:39.830Z,1.10
2023-03-23T18:22:06.533Z,1.13
2023-03-23T18:24:33.208Z,1.08
2023-03-23T18:27:00.266Z,0.98
2023-03-23T18:29:27.069Z,1.17
2023-03-23T18:31:53.878Z,1.00
2023-03-23T18:34:20.725Z,1.30
2023-03-23T18:36:47.348Z,1.45
2023-03-23T18:39:14.172Z,1.23
2023-03-23T18:41:40.957Z,1.40
2023-03-23T18:44:07.602Z,1.38
2023-03-23T18:46:34.300Z,1.45
2023-03-23T18:49:00.969Z,1.33
2023-03-23T18:51:27.684Z,1.30
2023-03-23T18:53:54.533Z,1.20
2023-03-23T18:56:21.159Z,1.70
2023-03-23T18:58:47.803Z,1.52
2023-03-23T19:01:17.056Z,1.50
2023-03-23T19:03:46.045Z,1.75
2023-03-23T19:06:19.410Z,1.40
2023-03-23T19:08:47.835Z,1.10
2023-03-23T19:11:14.989Z,1.10
2023-03-23T19:13:53.933Z,1.40
2023-03-23T19:16:28.247Z,1.10
2023-03-23T19:18:54.938Z,1.08
2023-03-23T19:21:25.483Z,1.10
2023-03-23T19:23:56.127Z,1.25
2023-03-23T19:26:29.234Z,1.00
2023-03-23T19:31:26.053Z,1.10
2023-03-23T19:33:53.312Z,1.10
2023-03-23T19:36:21.366Z,1.25
2023-03-23T19:38:48.442Z,1.10
2023-03-23T19:41:18.300Z,1.17
2023-03-23T19:43:46.053Z,1.27
2023-03-23T19:46:14.074Z,1.20
2023-03-23T19:48:41.013Z,1.20
2023-03-23T19:51:09.272Z,1.23
2023-03-23T19:53:36.323Z,1.60
2023-03-23T19:56:04.852Z,1.83
2023-03-23T19:58:32.508Z,1.58
2023-03-23T20:01:01.065Z,1.40
2023-03-23T20:03:28.453Z,1.10
2023-03-23T20:06:02.939Z,1.33
2023-03-23T20:08:31.326Z,1.33
2023-03-23T20:11:06.588Z,1.33
2023-03-23T20:13:33.259Z,1.30
2023-03-23T20:16:00.885Z,1.30
2023-03-23T20:18:29.789Z,1.10
2023-03-23T20:21:10.148Z,1.23
2023-03-23T20:23:38.460Z,1.40
2023-03-23T20:26:11.750Z,1.35
2023-03-23T20:28:39.151Z,1.17
2023-03-23T20:31:19.222Z,1.67
2023-03-23T20:34:00.885Z,1.30
2023-03-23T20:36:40.552Z,1.58
2023-03-23T20:39:10.857Z,1.30
2023-03-23T20:41:38.924Z,1.52
2023-03-23T20:44:07.586Z,1.30
2023-03-23T20:46:35.345Z,1.30
2023-03-23T20:49:02.764Z,1.20
2023-03-23T20:51:29.725Z,1.40
2023-03-23T20:53:56.315Z,1.40
2023-03-23T20:56:24.479Z,1.20
2023-03-23T20:58:51.943Z,1.70
2023-03-23T21:01:18.661Z,1.42
2023-03-23T21:03:45.593Z,1.33
2023-03-23T21:06:12.258Z,1.17
2023-03-23T21:08:40.795Z,1.15
2023-03-23T21:11:09.924Z,1.30
2023-03-23T21:13:36.965Z,1.88
2023-03-23T21:16:05.196Z,1.70
2023-03-23T21:18:32.283Z,1.67
2023-03-23T21:21:00.395Z,2.08
2023-03-23T21:23:30.755Z,1.40
2023-03-23T21:26:02.512Z,1.75
2023-03-23T21:28:29.809Z,1.25
2023-03-23T21:31:01.030Z,1.70
2023-03-23T21:33:28.323Z,1.58
2023-03-23T21:35:55.104Z,1.60
2023-03-23T21:38:26.358Z,1.80
2023-03-23T21:40:54.472Z,1.63
2023-03-23T21:43:27.720Z,1.92
2023-03-23T21:46:02.930Z,1.65
2023-03-23T21:48:30.191Z,1.52
2023-03-23T21:50:57.002Z,1.55
2023-03-23T21:53:25.500Z,1.48
2023-03-23T21:55:52.744Z,1.80
2023-03-23T21:58:21.763Z,1.27
2023-03-23T22:00:50.312Z,1.77
2023-03-23T22:03:19.229Z,1.67
2023-03-23T22:05:46.584Z,1.73
2023-03-23T22:08:13.873Z,1.75
2023-03-23T22:11:01.248Z,1.55
2023-03-23T22:13:33.430Z,1.83
2023-03-23T22:16:21.488Z,1.33
2023-03-23T22:18:49.314Z,1.48
2023-03-23T22:21:17.098Z,1.45
2023-03-23T22:23:45.554Z,1.50
2023-03-23T22:26:12.745Z,1.58
2023-03-23T22:28:39.878Z,1.48
2023-03-23T22:31:12.002Z,1.65
2023-03-23T22:33:39.177Z,1.48
2023-03-23T22:36:07.193Z,1.92
2023-03-23T22:38:35.747Z,1.40
2023-03-23T22:41:07.000Z,1.83
2023-03-23T22:43:35.461Z,2.08
2023-03-23T22:46:02.942Z,2.00
2023-03-23T22:48:30.123Z,1.67
2023-03-23T22:50:58.513Z,1.75
2023-03-23T22:53:25.602Z,1.50
2023-03-23T22:55:55.021Z,1.95
2023-03-23T23:00:50.378Z,1.50
2023-03-23T23:03:18.109Z,1.83
2023-03-23T23:05:48.587Z,1.60
2023-03-23T23:08:17.889Z,1.80
2023-03-23T23:10:48.061Z,1.73
2023-03-23T23:13:15.304Z,1.88
2023-03-23T23:15:47.166Z,1.52
2023-03-23T23:18:14.586Z,1.80
2023-03-23T23:20:42.230Z,1.52
2023-03-23T23:23:09.270Z,1.38
2023-03-23T23:25:36.592Z,1.70
2023-03-23T23:28:04.930Z,2.30
2023-03-23T23:30:32.170Z,1.90
2023-03-23T23:32:59.026Z,1.65
2023-03-23T23:35:26.216Z,1.83
2023-03-23T23:37:53.500Z,1.73
2023-03-23T23:40:20.467Z,1.73
2023-03-23T23:42:50.168Z,2.00
2023-03-23T23:45:18.211Z,2.00
2023-03-23T23:47:45.828Z,2.20
2023-03-23T23:50:13.928Z,2.22
2023-03-23T23:52:42.639Z,2.33
2023-03-23T23:55:10.470Z,1.80
2023-03-23T23:57:37.646Z,2.00
